Time;durP1;ratioP1;P1;durP2;ratioP2;P2;SDS_P1;SDS_P2;PMS_P1;PMS_P2;Temp;Humidity;BMP_temperature;BMP_pressure;BME280_temperature;BME280_humidity;BME280_pressure;Samples;Min_cycle;Max_cycle;Signal;HPM_P1;HPM_P2
2022/04/25 00:02:07;;;;;;;8.40;6.17;;;7.90;99.90;;;;;;5055409;28;20983;-71
2022/04/25 00:04:57;;;;;;;8.73;6.60;;;7.90;99.90;;;;;;5054233;28;20482;-71
2022/04/25 00:07:45;;;;;;;7.03;6.30;;;7.90;99.90;;;;;;5050782;28;20589;-72
2022/04/25 00:10:33;;;;;;;7.53;6.43;;;7.90;99.90;;;;;;5052150;28;20585;-71
2022/04/25 00:13:23;;;;;;;6.43;5.83;;;7.90;99.90;;;;;;5051473;28;20482;-72
2022/04/25 00:16:11;;;;;;;6.77;5.87;;;7.90;99.90;;;;;;5055548;28;20538;-71
2022/04/25 00:19:00;;;;;;;6.70;5.87;;;7.90;99.90;;;;;;5050965;28;20587;-71
2022/04/25 00:21:48;;;;;;;6.13;5.53;;;7.90;99.90;;;;;;5052265;28;20465;-71
2022/04/25 00:24:36;;;;;;;7.30;6.07;;;7.90;99.90;;;;;;5050549;28;20492;-71
2022/04/25 00:27:25;;;;;;;6.10;5.50;;;7.90;99.90;;;;;;5054248;28;20466;-71
2022/04/25 00:30:16;;;;;;;6.37;5.57;;;7.90;99.90;;;;;;5042721;28;21439;-71
2022/04/25 00:33:04;;;;;;;7.00;5.63;;;7.90;99.90;;;;;;5049974;28;20490;-71
2022/04/25 00:35:52;;;;;;;6.53;5.63;;;7.90;99.90;;;;;;5055757;28;20595;-71
2022/04/25 00:38:40;;;;;;;8.27;5.50;;;7.90;99.90;;;;;;5050849;28;20540;-71
2022/04/25 00:41:29;;;;;;;8.20;5.60;;;7.90;99.90;;;;;;5048178;28;20822;-71
2022/04/25 00:44:17;;;;;;;6.00;5.40;;;7.90;99.90;;;;;;5047854;28;20553;-70
2022/04/25 00:47:09;;;;;;;7.27;5.17;;;7.80;99.90;;;;;;5054103;28;20457;-71
2022/04/25 00:49:57;;;;;;;5.90;5.10;;;7.80;99.90;;;;;;5049341;28;20631;-70
2022/04/25 00:52:45;;;;;;;6.77;5.30;;;7.80;99.90;;;;;;5044122;28;20967;-71
2022/04/25 00:55:34;;;;;;;6.70;5.27;;;7.80;99.90;;;;;;5055429;28;20461;-71
2022/04/25 00:58:22;;;;;;;6.70;5.30;;;7.70;99.90;;;;;;5055133;28;20496;-71
2022/04/25 01:01:10;;;;;;;7.83;4.90;;;7.80;99.90;;;;;;5053352;28;20700;-71
2022/04/25 01:04:00;;;;;;;5.27;4.80;;;7.70;99.90;;;;;;5051281;28;20461;-71
2022/04/25 01:06:49;;;;;;;7.40;5.47;;;7.80;99.90;;;;;;5050571;28;20490;-71
2022/04/25 01:09:37;;;;;;;6.30;4.97;;;7.80;99.90;;;;;;5046344;28;20477;-71
2022/04/25 01:12:25;;;;;;;6.20;4.90;;;7.80;99.90;;;;;;5051189;28;20458;-71
2022/04/25 01:15:14;;;;;;;5.57;4.83;;;7.70;99.90;;;;;;5048736;28;20525;-71
2022/04/25 01:18:02;;;;;;;6.40;5.30;;;7.70;99.90;;;;;;5047298;28;21059;-72
2022/04/25 01:20:56;;;;;;;6.00;4.73;;;7.70;99.90;;;;;;5047451;28;20526;-71
2022/04/25 01:29:58;;;;;;;6.93;4.10;;;7.70;99.90;;;;;;5046561;28;20473;-71
2022/04/25 01:32:46;;;;;;;6.47;4.97;;;7.70;99.90;;;;;;5047742;28;20611;-71
2022/04/25 01:35:35;;;;;;;6.70;4.70;;;7.80;99.90;;;;;;5047241;28;20446;-71
2022/04/25 01:38:23;;;;;;;5.30;4.40;;;7.70;99.90;;;;;;5047300;28;20462;-71
2022/04/25 01:41:12;;;;;;;6.80;4.73;;;7.70;99.90;;;;;;5047356;28;20475;-71
2022/04/25 01:44:00;;;;;;;6.30;4.50;;;7.70;99.90;;;;;;5044317;28;20483;-71
2022/04/25 01:46:48;;;;;;;4.60;4.20;;;7.70;99.90;;;;;;5040893;28;20495;-71
2022/04/25 01:49:37;;;;;;;4.70;4.30;;;7.70;99.90;;;;;;5048665;28;20478;-72
2022/04/25 01:52:29;;;;;;;5.80;4.37;;;7.70;99.90;;;;;;5043106;28;20455;-71
2022/04/25 01:55:17;;;;;;;6.57;4.40;;;7.70;99.90;;;;;;5048057;28;20450;-71
2022/04/25 01:58:06;;;;;;;4.87;3.60;;;7.70;99.90;;;;;;5052120;28;20833;-71
2022/04/25 02:00:54;;;;;;;6.20;3.90;;;7.70;99.90;;;;;;5049200;28;21040;-72
2022/04/25 02:03:43;;;;;;;4.77;4.17;;;7.70;99.90;;;;;;5049145;28;21498;-70
2022/04/25 02:06:31;;;;;;;5.03;3.93;;;7.60;99.90;;;;;;5047252;28;20450;-71
2022/04/25 02:09:20;;;;;;;9.30;4.20;;;7.60;99.90;;;;;;5046934;28;20596;-71
2022/04/25 02:12:09;;;;;;;5.90;3.87;;;7.60;99.90;;;;;;5044772;28;20532;-71
2022/04/25 02:14:58;;;;;;;4.57;4.10;;;7.60;99.90;;;;;;5048317;28;20631;-71
2022/04/25 02:17:46;;;;;;;6.03;4.40;;;7.60;99.90;;;;;;5045579;28;20649;-71
2022/04/25 02:20:35;;;;;;;6.60;4.00;;;7.60;99.90;;;;;;5042436;28;20556;-70
2022/04/25 02:23:23;;;;;;;7.47;3.43;;;7.50;99.90;;;;;;5046421;28;20843;-70
2022/04/25 02:26:11;;;;;;;4.60;4.20;;;7.50;99.90;;;;;;5046594;28;20545;-70
2022/04/25 02:29:02;;;;;;;5.87;3.83;;;7.50;99.90;;;;;;5044736;28;20449;-71
2022/04/25 02:31:51;;;;;;;5.10;3.93;;;7.50;99.90;;;;;;5048119;28;20462;-70
2022/04/25 02:34:40;;;;;;;5.57;3.50;;;7.50;99.90;;;;;;5047612;28;21046;-70
2022/04/25 02:37:28;;;;;;;4.63;3.80;;;7.50;99.90;;;;;;5043430;28;20525;-69
2022/04/25 02:40:16;;;;;;;4.37;3.70;;;7.50;99.90;;;;;;5047568;28;20480;-70
2022/04/25 02:43:05;;;;;;;5.60;3.67;;;7.40;99.90;;;;;;5043390;28;21300;-70
2022/04/25 02:45:53;;;;;;;5.77;3.50;;;7.40;99.90;;;;;;5043075;28;20970;-71
2022/04/25 02:48:44;;;;;;;4.40;3.70;;;7.40;99.90;;;;;;5045398;28;20454;-71
2022/04/25 02:51:32;;;;;;;5.20;3.97;;;7.40;99.90;;;;;;5043438;28;20630;-72
2022/04/25 02:54:20;;;;;;;6.33;4.03;;;7.30;99.90;;;;;;5045503;28;20474;-72
2022/04/25 02:57:08;;;;;;;5.00;3.80;;;7.30;99.90;;;;;;5045333;28;20561;-71
2022/04/25 02:59:57;;;;;;;5.83;3.70;;;7.20;99.90;;;;;;5046502;28;20584;-71
2022/04/25 03:02:45;;;;;;;3.80;3.40;;;7.20;99.90;;;;;;5047151;28;20467;-71
2022/04/25 03:05:36;;;;;;;6.63;4.00;;;7.30;99.90;;;;;;5042345;28;20461;-71
2022/04/25 03:08:25;;;;;;;7.07;4.07;;;7.20;99.90;;;;;;5048087;28;20601;-71
2022/04/25 03:11:13;;;;;;;3.63;3.33;;;7.20;99.90;;;;;;5043219;28;20617;-71
2022/04/25 03:14:01;;;;;;;4.83;4.13;;;7.20;99.90;;;;;;5046146;28;21090;-71
2022/04/25 03:16:50;;;;;;;5.90;4.03;;;7.10;99.90;;;;;;5050231;28;20994;-71
2022/04/25 03:19:38;;;;;;;4.40;3.00;;;7.10;99.90;;;;;;5042664;28;20505;-71
2022/04/25 03:22:28;;;;;;;5.80;3.97;;;7.10;99.90;;;;;;5048064;28;20454;-71
2022/04/25 03:25:16;;;;;;;6.70;4.63;;;7.10;99.90;;;;;;5052448;28;20541;-71
2022/04/25 03:28:05;;;;;;;4.67;3.60;;;7.10;99.90;;;;;;5042564;28;20470;-72
2022/04/25 03:30:53;;;;;;;5.90;3.80;;;7.00;99.90;;;;;;5048770;28;20567;-71
2022/04/25 03:33:41;;;;;;;6.87;3.93;;;7.00;99.90;;;;;;5054423;28;20489;-71
2022/04/25 03:36:31;;;;;;;5.10;3.60;;;6.90;99.90;;;;;;5050298;28;20493;-72
2022/04/25 03:39:20;;;;;;;5.50;3.50;;;7.00;99.90;;;;;;5050510;28;20493;-71
2022/04/25 03:42:08;;;;;;;5.90;3.80;;;7.00;99.90;;;;;;5048564;28;20445;-72
2022/04/25 03:44:57;;;;;;;4.83;4.27;;;7.00;99.90;;;;;;5050513;28;20478;-71
2022/04/25 03:47:46;;;;;;;5.27;4.73;;;7.00;99.90;;;;;;5052212;28;20546;-71
2022/04/25 03:50:34;;;;;;;4.23;3.83;;;7.00;99.90;;;;;;5049555;28;20492;-71
2022/04/25 03:53:23;;;;;;;4.20;3.53;;;7.00;99.90;;;;;;5046679;28;20611;-71
2022/04/25 03:59:18;;;;;;;6.53;3.93;;;7.00;99.90;;;;;;5051338;28;20474;-71
2022/04/25 04:02:07;;;;;;;10.27;5.67;;;7.00;99.90;;;;;;5050970;28;20513;-72
2022/04/25 04:04:56;;;;;;;6.70;3.60;;;6.90;99.90;;;;;;5054586;28;20485;-72
2022/04/25 04:07:44;;;;;;;4.00;3.07;;;6.90;99.90;;;;;;5045344;28;21908;-72
2022/04/25 04:10:32;;;;;;;5.00;3.47;;;6.90;99.90;;;;;;5047505;28;20473;-71
2022/04/25 04:13:22;;;;;;;5.53;3.57;;;6.90;99.90;;;;;;5054916;28;20572;-72
2022/04/25 04:16:10;;;;;;;4.30;2.93;;;6.90;99.90;;;;;;5050107;28;20503;-72
2022/04/25 04:18:58;;;;;;;5.63;3.20;;;6.90;99.90;;;;;;5056911;28;20446;-73
2022/04/25 04:21:47;;;;;;;4.00;3.60;;;6.90;99.90;;;;;;5029096;28;20839;-72
2022/04/25 04:24:35;;;;;;;4.43;3.27;;;6.80;99.90;;;;;;5052164;28;20478;-72
2022/04/25 04:27:23;;;;;;;6.47;3.47;;;6.80;99.90;;;;;;5048722;28;20618;-72
2022/04/25 04:30:15;;;;;;;8.47;3.73;;;6.90;99.90;;;;;;5051200;28;21037;-71
2022/04/25 04:33:05;;;;;;;4.80;3.73;;;6.80;99.90;;;;;;5054383;28;20620;-71
2022/04/25 04:38:59;;;;;;;3.93;3.07;;;6.80;99.90;;;;;;5049680;28;20486;-72
2022/04/25 04:41:48;;;;;;;7.20;3.67;;;6.80;99.90;;;;;;5039440;28;20451;-71
2022/04/25 04:44:37;;;;;;;7.60;3.80;;;6.80;99.90;;;;;;5048566;28;20965;-72
2022/04/25 04:47:26;;;;;;;6.83;3.27;;;6.70;99.90;;;;;;5048461;28;20579;-72
2022/04/25 04:50:16;;;;;;;4.43;3.20;;;6.70;99.90;;;;;;5050337;28;20536;-72
2022/04/25 04:53:04;;;;;;;5.17;3.50;;;6.70;99.90;;;;;;5044740;28;20482;-72
2022/04/25 04:55:52;;;;;;;6.43;3.37;;;6.70;99.90;;;;;;5047370;28;20565;-72
2022/04/25 04:58:40;;;;;;;5.80;3.60;;;6.80;99.90;;;;;;5048157;28;20521;-72
2022/04/25 05:01:29;;;;;;;3.70;3.40;;;6.80;99.90;;;;;;5044112;28;20465;-71
2022/04/25 05:04:18;;;;;;;3.70;2.90;;;6.80;99.90;;;;;;5041121;28;20931;-72
2022/04/25 05:07:06;;;;;;;5.30;3.20;;;6.70;99.90;;;;;;5049841;28;20959;-71
2022/04/25 05:09:55;;;;;;;5.77;3.60;;;6.80;99.90;;;;;;5051357;28;20488;-71
2022/04/25 05:12:51;;;;;;;3.13;2.80;;;6.80;99.90;;;;;;5049388;28;20478;-71
2022/04/25 05:15:39;;;;;;;5.00;3.60;;;6.80;99.90;;;;;;5050340;28;20886;-71
2022/04/25 05:18:32;;;;;;;6.70;3.60;;;6.80;99.90;;;;;;5047373;28;20504;-71
2022/04/25 05:21:21;;;;;;;6.70;3.03;;;6.80;99.90;;;;;;5050908;28;20457;-72
2022/04/25 05:24:13;;;;;;;4.67;2.80;;;6.80;99.90;;;;;;5053707;28;20465;-72
2022/04/25 05:27:01;;;;;;;3.67;2.73;;;6.80;99.90;;;;;;5050525;28;20545;-72
2022/04/25 05:29:49;;;;;;;3.83;3.00;;;6.80;99.90;;;;;;5049274;28;20482;-71
2022/04/25 05:32:46;;;;;;;3.33;2.70;;;6.90;99.90;;;;;;5044501;28;20466;-71
2022/04/25 05:35:35;;;;;;;6.37;2.93;;;6.90;99.90;;;;;;5034180;28;20798;-71
2022/04/25 05:38:25;;;;;;;6.13;3.30;;;7.00;99.90;;;;;;5035133;28;21004;-72
2022/04/25 05:41:13;;;;;;;8.80;3.43;;;7.00;99.90;;;;;;5038150;28;20698;-72
2022/04/25 05:44:01;;;;;;;3.50;2.93;;;7.00;99.90;;;;;;5048327;28;20474;-71
2022/04/25 05:46:49;;;;;;;3.47;3.10;;;7.10;99.90;;;;;;5045524;28;20495;-72
2022/04/25 05:52:46;;;;;;;5.10;3.77;;;7.10;99.90;;;;;;5026986;28;20482;-72
2022/04/25 05:55:37;;;;;;;6.27;2.90;;;7.10;99.90;;;;;;5041090;28;20563;-72
2022/04/25 05:58:25;;;;;;;4.87;3.30;;;7.20;99.90;;;;;;5038618;28;20529;-72
2022/04/25 06:01:14;;;;;;;5.10;2.87;;;7.20;99.90;;;;;;5048551;28;20477;-71
2022/04/25 06:04:02;;;;;;;5.50;3.30;;;7.20;99.90;;;;;;5043440;28;20527;-72
2022/04/25 06:06:50;;;;;;;5.30;3.13;;;7.20;99.90;;;;;;5038762;28;20455;-71
2022/04/25 06:09:38;;;;;;;3.03;2.50;;;7.30;99.90;;;;;;5039801;28;20478;-72
2022/04/25 06:12:29;;;;;;;3.43;3.07;;;7.30;99.90;;;;;;5043136;28;20509;-72
2022/04/25 06:15:18;;;;;;;3.60;2.83;;;7.30;99.90;;;;;;5039445;28;20973;-72
2022/04/25 06:18:11;;;;;;;4.43;2.70;;;7.40;99.90;;;;;;5044799;28;20569;-72
2022/04/25 06:20:59;;;;;;;4.00;2.93;;;7.40;99.90;;;;;;5042924;28;20470;-73
2022/04/25 06:23:52;;;;;;;4.53;2.50;;;7.40;99.90;;;;;;5036786;28;20832;-71
2022/04/25 06:26:40;;;;;;;3.60;3.10;;;7.50;99.90;;;;;;5045532;28;20473;-71
2022/04/25 06:29:30;;;;;;;4.80;3.20;;;7.50;99.90;;;;;;5027468;28;20860;-72
2022/04/25 06:32:19;;;;;;;3.80;2.90;;;7.50;99.90;;;;;;5038549;28;20478;-72
2022/04/25 06:35:09;;;;;;;3.30;2.90;;;7.60;99.90;;;;;;5043503;28;20461;-72
2022/04/25 06:37:57;;;;;;;5.30;3.00;;;7.60;99.90;;;;;;5043527;28;20451;-72
2022/04/25 06:40:46;;;;;;;3.80;3.33;;;7.70;99.90;;;;;;5046352;28;20561;-72
2022/04/25 06:43:36;;;;;;;5.53;3.80;;;7.80;99.90;;;;;;5053136;28;20853;-72
2022/04/25 06:46:26;;;;;;;2.53;2.33;;;7.90;99.90;;;;;;5051454;28;20608;-73
2022/04/25 06:49:27;;;;;;;2.50;2.30;;;8.00;99.90;;;;;;5043557;28;20473;-72
2022/04/25 06:52:16;;;;;;;4.30;2.80;;;8.00;99.90;;;;;;5035649;28;20535;-72
2022/04/25 06:55:05;;;;;;;5.20;3.80;;;8.10;99.90;;;;;;5041602;28;20486;-71
2022/04/25 06:57:54;;;;;;;3.87;2.80;;;8.20;99.90;;;;;;5043838;28;20451;-71
2022/04/25 07:00:43;;;;;;;3.13;2.70;;;8.30;99.90;;;;;;5041025;28;20489;-70
2022/04/25 07:03:32;;;;;;;4.20;2.70;;;8.30;99.90;;;;;;5044699;28;20476;-70
2022/04/25 07:06:21;;;;;;;3.57;3.17;;;8.40;99.90;;;;;;5046717;28;20461;-69
2022/04/25 07:09:12;;;;;;;3.27;2.90;;;8.40;99.90;;;;;;5045665;28;20455;-69
2022/04/25 07:12:01;;;;;;;3.73;2.63;;;8.50;99.90;;;;;;5043411;28;20543;-70
2022/04/25 07:14:50;;;;;;;6.00;3.00;;;8.60;99.90;;;;;;5041293;28;20907;-71
2022/04/25 07:17:38;;;;;;;3.33;2.90;;;8.70;99.90;;;;;;5042293;28;20993;-71
2022/04/25 07:20:28;;;;;;;3.80;3.00;;;8.70;99.90;;;;;;5043609;28;21005;-72
2022/04/25 07:29:27;;;;;;;4.43;3.30;;;8.90;99.90;;;;;;5047129;28;20465;-71
2022/04/25 07:32:16;;;;;;;4.70;3.53;;;9.00;99.90;;;;;;5042970;28;20459;-71
2022/04/25 07:35:06;;;;;;;3.27;2.97;;;9.10;99.90;;;;;;5035241;28;20951;-71
2022/04/25 07:37:56;;;;;;;4.13;2.90;;;9.20;99.90;;;;;;5038370;28;21225;-70
2022/04/25 07:40:44;;;;;;;3.60;3.17;;;9.20;99.90;;;;;;5043285;28;20489;-70
2022/04/25 07:43:32;;;;;;;3.70;2.90;;;9.30;99.90;;;;;;5038344;28;21029;-70
2022/04/25 07:46:23;;;;;;;3.10;2.57;;;9.40;99.90;;;;;;5028997;28;20492;-70
2022/04/25 07:49:12;;;;;;;3.33;3.07;;;9.50;99.90;;;;;;5040754;28;20592;-70
2022/04/25 07:52:01;;;;;;;2.70;2.50;;;9.50;99.90;;;;;;5032825;28;20458;-70
2022/04/25 07:54:51;;;;;;;3.27;2.90;;;9.60;99.90;;;;;;5040837;28;20490;-70
2022/04/25 07:57:45;;;;;;;5.10;2.80;;;9.70;99.90;;;;;;5043761;28;21419;-70
2022/04/25 08:00:33;;;;;;;3.20;2.90;;;9.80;99.90;;;;;;5040743;28;20609;-71
2022/04/25 08:03:21;;;;;;;6.00;3.20;;;9.90;99.90;;;;;;5038132;28;21152;-71
2022/04/25 08:06:11;;;;;;;6.83;2.83;;;9.90;99.90;;;;;;5041639;28;20985;-70
2022/04/25 08:09:02;;;;;;;5.03;3.37;;;10.00;99.90;;;;;;5044563;28;20463;-71
2022/04/25 08:17:56;;;;;;;4.37;2.90;;;10.10;99.90;;;;;;5048304;28;20466;-70
2022/04/25 08:18:06;;;;;;;4.23;3.00;;;10.30;99.90;;;;;;5045771;28;20616;-69
2022/04/25 08:20:55;;;;;;;4.03;3.20;;;10.40;99.90;;;;;;5047694;28;20477;-70
2022/04/25 08:23:45;;;;;;;3.30;3.00;;;10.50;99.90;;;;;;5049632;28;20498;-69
2022/04/25 08:26:33;;;;;;;3.47;2.83;;;10.50;99.90;;;;;;5037813;28;20508;-71
2022/04/25 08:29:24;;;;;;;4.20;3.20;;;10.60;99.90;;;;;;5039964;28;20515;-71
2022/04/25 08:32:12;;;;;;;4.13;3.23;;;10.70;99.90;;;;;;5039098;28;20454;-71
2022/04/25 08:35:00;;;;;;;5.73;3.47;;;10.80;99.90;;;;;;5050263;28;21116;-71
2022/04/25 08:37:49;;;;;;;4.47;4.07;;;10.90;99.90;;;;;;5045921;28;20466;-70
2022/04/25 08:40:37;;;;;;;4.13;3.70;;;11.00;99.90;;;;;;5043909;28;21262;-71
2022/04/25 08:43:27;;;;;;;4.40;3.90;;;11.10;99.90;;;;;;5050101;28;20473;-70
2022/04/25 08:46:16;;;;;;;3.73;3.43;;;11.10;99.90;;;;;;5045558;28;20541;-70
2022/04/25 08:49:05;;;;;;;4.90;3.87;;;11.10;99.90;;;;;;5048325;28;20449;-70
2022/04/25 08:51:58;;;;;;;6.20;3.80;;;11.20;99.90;;;;;;5046194;28;20459;-71
2022/04/25 08:54:48;;;;;;;4.80;3.70;;;11.30;99.90;;;;;;5043953;28;20997;-70
2022/04/25 08:57:37;;;;;;;4.13;3.73;;;11.40;99.90;;;;;;5045391;28;20535;-70
2022/04/25 09:00:26;;;;;;;4.47;2.97;;;11.40;99.90;;;;;;5051213;28;20476;-70
2022/04/25 09:03:15;;;;;;;3.90;3.50;;;11.50;99.90;;;;;;5048436;28;20973;-70
2022/04/25 09:06:06;;;;;;;4.80;3.43;;;11.60;99.90;;;;;;5038898;28;20474;-72
2022/04/25 09:08:54;;;;;;;4.47;3.50;;;11.70;99.90;;;;;;5040112;28;20487;-70
2022/04/25 09:14:48;;;;;;;4.07;3.67;;;11.80;99.90;;;;;;5045829;28;20486;-70
2022/04/25 09:17:57;;;;;;;5.03;3.00;;;11.90;99.90;;;;;;5045971;28;20449;-71
2022/04/25 09:20:47;;;;;;;3.60;3.30;;;11.90;99.90;;;;;;5041228;28;20471;-71
2022/04/25 09:23:35;;;;;;;5.23;4.00;;;12.00;99.90;;;;;;5049806;28;20556;-71
2022/04/25 09:26:28;;;;;;;3.40;3.03;;;12.10;99.90;;;;;;5052155;28;20439;-71
2022/04/25 09:29:25;;;;;;;4.23;3.50;;;12.20;99.90;;;;;;5050443;28;20501;-70
2022/04/25 09:32:14;;;;;;;3.73;3.33;;;12.30;99.90;;;;;;5043609;28;20443;-71
2022/04/25 09:35:27;;;;;;;3.50;3.20;;;12.30;99.90;;;;;;5050726;28;20478;-71
2022/04/25 09:38:29;;;;;;;3.33;3.03;;;12.40;99.90;;;;;;5046305;28;20598;-70
2022/04/25 09:41:18;;;;;;;4.80;2.90;;;12.50;99.90;;;;;;5052606;28;21023;-70
2022/04/25 09:44:06;;;;;;;3.37;3.07;;;12.60;99.90;;;;;;5047676;28;20498;-71
2022/04/25 09:46:54;;;;;;;3.70;3.37;;;12.70;99.90;;;;;;5042645;28;21209;-70
2022/04/25 09:49:42;;;;;;;3.40;3.10;;;12.80;99.90;;;;;;5045214;28;20506;-70
2022/04/25 09:52:32;;;;;;;3.67;3.30;;;12.80;99.90;;;;;;5034143;28;20839;-70
2022/04/25 09:55:23;;;;;;;3.33;3.03;;;12.80;99.90;;;;;;5050344;28;20974;-70
2022/04/25 09:58:19;;;;;;;3.50;3.10;;;12.90;99.90;;;;;;5045442;28;20453;-71
2022/04/25 10:01:13;;;;;;;3.60;3.10;;;13.00;99.90;;;;;;5044880;28;20477;-70
2022/04/25 10:04:02;;;;;;;4.60;3.50;;;13.10;99.90;;;;;;5041892;28;20467;-71
2022/04/25 10:06:53;;;;;;;3.70;3.40;;;13.20;99.90;;;;;;5050080;28;20459;-70
2022/04/25 10:09:44;;;;;;;3.50;3.13;;;13.20;99.90;;;;;;5043829;28;20481;-70
2022/04/25 10:12:35;;;;;;;4.17;3.77;;;13.30;99.90;;;;;;5041427;28;20510;-70
2022/04/25 10:15:24;;;;;;;4.37;3.70;;;13.40;99.90;;;;;;5033113;28;20466;-71
2022/04/25 10:18:14;;;;;;;4.20;3.50;;;13.50;99.90;;;;;;5049462;28;20509;-70
2022/04/25 10:21:04;;;;;;;4.10;3.70;;;13.50;99.90;;;;;;5042275;28;21231;-70
2022/04/25 10:23:53;;;;;;;5.93;5.10;;;13.50;99.90;;;;;;5047665;28;20470;-70
2022/04/25 10:26:41;;;;;;;3.57;3.20;;;13.60;99.90;;;;;;5041818;28;20463;-70
2022/04/25 10:29:36;;;;;;;3.83;3.23;;;13.60;99.90;;;;;;5044214;28;20551;-71
2022/04/25 10:32:25;;;;;;;4.00;3.60;;;13.70;99.90;;;;;;5045264;28;20455;-70
2022/04/25 10:35:14;;;;;;;4.83;3.50;;;13.80;99.90;;;;;;5047579;28;20475;-71
2022/04/25 10:44:59;;;;;;;3.30;3.00;;;14.10;99.90;;;;;;5036343;28;21011;-70
2022/04/25 10:47:58;;;;;;;4.73;3.20;;;14.20;99.90;;;;;;5042746;28;20441;-69
2022/04/25 10:51:08;;;;;;;3.97;3.57;;;14.30;99.90;;;;;;5042770;28;20481;-71
2022/04/25 10:53:59;;;;;;;3.10;2.90;;;14.30;99.90;;;;;;5037405;28;20464;-70
2022/04/25 10:57:14;;;;;;;3.40;3.10;;;14.40;99.90;;;;;;5045320;28;20460;-70
2022/04/25 11:00:25;;;;;;;3.60;3.30;;;14.40;99.90;;;;;;5045923;28;20473;-72
2022/04/25 11:03:15;;;;;;;3.63;3.33;;;14.50;99.90;;;;;;5040002;28;20482;-71
2022/04/25 11:06:06;;;;;;;5.27;4.87;;;14.60;99.90;;;;;;5043145;28;20443;-70
2022/04/25 11:08:54;;;;;;;3.10;2.80;;;14.80;99.90;;;;;;5050520;28;20445;-71
2022/04/25 11:11:51;;;;;;;4.00;3.70;;;14.90;99.90;;;;;;5051299;28;22422;-71
2022/04/25 11:14:57;;;;;;;8.80;3.47;;;15.00;99.90;;;;;;5043401;28;21021;-70
2022/04/25 11:18:15;;;;;;;3.73;3.10;;;15.00;99.90;;;;;;5042536;28;20486;-70
2022/04/25 11:21:07;;;;;;;4.30;3.53;;;15.10;99.90;;;;;;5037202;28;20636;-71
2022/04/25 11:23:57;;;;;;;4.73;3.70;;;15.10;99.90;;;;;;5029081;28;20537;-70
2022/04/25 11:26:55;;;;;;;4.80;4.40;;;15.20;99.90;;;;;;5037351;28;21224;-70
2022/04/25 11:29:46;;;;;;;3.13;2.83;;;15.30;99.90;;;;;;5040576;28;20474;-71
2022/04/25 11:32:37;;;;;;;3.10;2.90;;;15.50;99.90;;;;;;5038839;28;20478;-71
2022/04/25 11:35:25;;;;;;;3.67;3.37;;;15.50;99.90;;;;;;5041667;28;21006;-71
2022/04/25 11:39:50;;;;;;;3.30;3.00;;;15.60;99.90;;;;;;5036219;28;20608;-71
2022/04/25 11:41:25;;;;;;;3.40;3.10;;;15.70;99.90;;;;;;5033899;28;20589;-71
2022/04/25 11:44:13;;;;;;;3.13;2.93;;;15.80;99.90;;;;;;5045537;28;20488;-71
2022/04/25 11:47:02;;;;;;;3.33;3.03;;;16.00;99.90;;;;;;5043365;28;20446;-71
2022/04/25 11:49:57;;;;;;;3.00;2.80;;;16.10;99.90;;;;;;5033552;28;20917;-71
2022/04/25 11:52:46;;;;;;;3.40;3.10;;;16.20;99.90;;;;;;5046254;28;20780;-72
2022/04/25 11:55:38;;;;;;;3.80;3.50;;;16.40;99.90;;;;;;5047249;28;20565;-72
2022/04/25 11:58:29;;;;;;;3.60;3.30;;;16.40;99.90;;;;;;5043280;28;20485;-72
2022/04/25 12:01:33;;;;;;;3.33;3.13;;;16.50;99.90;;;;;;5046449;28;20481;-71
2022/04/25 12:04:22;;;;;;;3.33;3.13;;;16.50;99.90;;;;;;5040125;28;20477;-71
2022/04/25 12:07:12;;;;;;;2.93;2.73;;;16.60;99.90;;;;;;5045260;28;20465;-72
2022/04/25 12:16:18;;;;;;;3.73;2.70;;;16.90;99.90;;;;;;5036189;28;20492;-77
2022/04/25 12:19:08;;;;;;;3.67;2.50;;;17.00;99.90;;;;;;5047251;28;20455;-70
2022/04/25 12:22:04;;;;;;;3.10;2.90;;;17.10;99.90;;;;;;5044830;28;20574;-71
2022/04/25 12:25:14;;;;;;;3.40;3.10;;;17.30;99.90;;;;;;5034885;28;20478;-71
2022/04/25 12:28:05;;;;;;;3.70;3.10;;;17.40;99.90;;;;;;5042063;28;20489;-71
2022/04/25 12:30:56;;;;;;;3.17;2.97;;;17.60;99.90;;;;;;5041814;28;20470;-71
2022/04/25 12:33:47;;;;;;;3.80;3.50;;;17.50;99.90;;;;;;5039627;28;20478;-71
2022/04/25 12:36:36;;;;;;;3.10;2.80;;;17.70;99.90;;;;;;5044413;28;20474;-71
2022/04/25 12:39:27;;;;;;;3.43;3.13;;;17.80;99.90;;;;;;5048401;28;21032;-70
2022/04/25 12:42:17;;;;;;;4.10;3.50;;;17.90;99.90;;;;;;5047971;28;20464;-74
2022/04/25 12:45:06;;;;;;;3.03;2.63;;;18.00;99.90;;;;;;5044540;28;20469;-71
2022/04/25 12:47:56;;;;;;;3.43;3.13;;;18.00;99.90;;;;;;5046647;28;20975;-70
2022/04/25 12:50:45;;;;;;;3.40;3.13;;;18.10;99.90;;;;;;5050536;28;20565;-70
2022/04/25 12:53:41;;;;;;;5.53;3.20;;;18.10;99.90;;;;;;5046126;28;20513;-72
2022/04/25 12:56:31;;;;;;;3.60;3.07;;;18.10;99.90;;;;;;5043449;28;20486;-72
2022/04/25 12:59:28;;;;;;;3.37;3.00;;;18.30;99.90;;;;;;5045564;28;20997;-70
2022/04/25 13:02:19;;;;;;;3.80;3.50;;;18.40;99.90;;;;;;5042974;28;20465;-72
2022/04/25 13:05:11;;;;;;;13.30;12.30;;;18.60;99.90;;;;;;5045738;28;20449;-70
2022/04/25 13:07:59;;;;;;;9.77;4.57;;;18.70;99.90;;;;;;5041023;28;20493;-71
2022/04/25 13:10:47;;;;;;;9.03;8.33;;;18.70;99.90;;;;;;5038013;28;20481;-71
2022/04/25 13:13:35;;;;;;;12.10;6.90;;;18.80;99.90;;;;;;5042267;28;20525;-71
2022/04/25 13:16:24;;;;;;;9.83;9.00;;;19.00;99.90;;;;;;5042058;28;20736;-71
2022/04/25 13:19:12;;;;;;;12.77;11.73;;;19.00;99.90;;;;;;5036909;28;21055;-71
2022/04/25 13:22:01;;;;;;;5.77;5.23;;;19.20;99.90;;;;;;5039905;28;20462;-71
2022/04/25 13:24:56;;;;;;;4.23;3.70;;;19.30;99.90;;;;;;5037447;28;20486;-70
2022/04/25 13:27:44;;;;;;;3.57;3.27;;;19.40;99.90;;;;;;5050532;28;20447;-71
2022/04/25 13:30:32;;;;;;;3.37;3.07;;;19.50;99.90;;;;;;5045183;28;20471;-71
2022/04/25 13:33:20;;;;;;;3.03;2.83;;;19.40;99.90;;;;;;5030155;28;20605;-71
2022/04/25 13:36:09;;;;;;;3.30;3.07;;;19.50;99.90;;;;;;5044315;28;20474;-71
2022/04/25 13:38:58;;;;;;;3.00;2.80;;;19.70;99.90;;;;;;5038908;28;20470;-71
2022/04/25 13:41:46;;;;;;;3.43;3.13;;;20.00;99.90;;;;;;5043388;28;20493;-71
2022/04/25 13:44:35;;;;;;;3.67;3.00;;;20.20;99.90;;;;;;5034776;28;20494;-70
2022/04/25 13:47:23;;;;;;;2.90;2.70;;;20.30;99.90;;;;;;5036665;28;20531;-71
2022/04/25 13:50:11;;;;;;;3.00;2.80;;;20.20;99.90;;;;;;5031613;28;20470;-72
2022/04/25 13:52:59;;;;;;;2.90;2.70;;;20.10;99.90;;;;;;5043456;28;20532;-72
2022/04/25 13:55:49;;;;;;;3.30;3.00;;;20.30;99.90;;;;;;5046015;28;20496;-71
2022/04/25 13:58:38;;;;;;;2.90;2.60;;;20.50;99.90;;;;;;5039897;28;20523;-71
2022/04/25 14:01:26;;;;;;;3.40;3.10;;;20.80;99.90;;;;;;5031056;28;20447;-72
2022/04/25 14:04:14;;;;;;;3.57;3.27;;;21.00;99.90;;;;;;5041373;28;20486;-72
2022/04/25 14:07:05;;;;;;;2.63;2.43;;;21.10;99.90;;;;;;5039160;28;21871;-72
2022/04/25 14:09:53;;;;;;;2.37;2.20;;;21.30;99.90;;;;;;5041723;28;20597;-72
2022/04/25 14:12:43;;;;;;;2.63;2.47;;;21.40;99.90;;;;;;5025892;28;20546;-73
2022/04/25 14:15:31;;;;;;;3.03;2.80;;;21.50;99.90;;;;;;5042309;28;20481;-72
2022/04/25 14:18:19;;;;;;;2.67;2.47;;;21.50;99.90;;;;;;5039907;28;20463;-73
2022/04/25 14:21:08;;;;;;;2.60;2.40;;;21.50;99.60;;;;;;5043077;28;21008;-73
2022/04/25 14:23:56;;;;;;;5.00;2.50;;;21.40;99.90;;;;;;5044333;28;20482;-73
2022/04/25 14:26:44;;;;;;;3.10;2.90;;;21.50;99.00;;;;;;5044389;28;20454;-73
2022/04/25 14:29:34;;;;;;;2.50;2.30;;;21.40;97.50;;;;;;5046870;28;20564;-73
2022/04/25 14:32:22;;;;;;;3.00;2.57;;;21.30;97.70;;;;;;5044710;28;20481;-73
2022/04/25 14:35:10;;;;;;;2.70;2.20;;;21.40;99.00;;;;;;5042639;28;20438;-73
2022/04/25 14:37:59;;;;;;;3.00;2.43;;;21.30;96.90;;;;;;5038124;28;20478;-73
2022/04/25 14:40:47;;;;;;;2.90;2.60;;;21.20;96.40;;;;;;5043923;28;20487;-74
2022/04/25 14:43:35;;;;;;;2.73;2.50;;;21.30;95.30;;;;;;5033025;28;20526;-73
2022/04/25 14:46:25;;;;;;;2.53;2.33;;;21.30;96.50;;;;;;5034023;28;20503;-74
2022/04/25 14:49:16;;;;;;;2.87;2.67;;;21.40;97.00;;;;;;5040470;28;20456;-73
2022/04/25 14:55:10;;;;;;;2.30;2.10;;;21.60;95.90;;;;;;5029473;28;20482;-73
2022/04/25 14:58:00;;;;;;;1.90;1.80;;;21.50;96.20;;;;;;5038755;28;20470;-73
2022/04/25 15:00:48;;;;;;;4.97;2.63;;;21.40;94.90;;;;;;5045515;28;20488;-74
2022/04/25 15:03:37;;;;;;;2.60;2.40;;;21.30;95.30;;;;;;5044706;28;20473;-74
2022/04/25 15:06:26;;;;;;;2.43;2.23;;;21.30;96.70;;;;;;5038891;28;20491;-74
2022/04/25 15:09:14;;;;;;;2.47;2.27;;;21.20;94.60;;;;;;5033137;28;20572;-72
2022/04/25 15:12:06;;;;;;;3.80;2.60;;;20.90;95.20;;;;;;5041491;28;21524;-73
2022/04/25 15:14:54;;;;;;;2.33;2.13;;;20.60;94.90;;;;;;5047931;28;20489;-73
2022/04/25 15:17:43;;;;;;;2.40;2.20;;;20.40;98.20;;;;;;5040845;28;20514;-72
2022/04/25 15:20:34;;;;;;;3.03;2.83;;;20.00;96.70;;;;;;5051559;28;20847;-71
2022/04/25 15:23:22;;;;;;;3.10;2.57;;;19.70;97.20;;;;;;5045281;28;20462;-71
2022/04/25 15:26:10;;;;;;;4.50;4.20;;;19.30;99.30;;;;;;5034598;28;21067;-74
2022/04/25 15:28:58;;;;;;;2.83;2.63;;;19.10;99.60;;;;;;5037284;28;20568;-71
2022/04/25 15:31:46;;;;;;;3.70;2.73;;;18.70;97.30;;;;;;5032434;28;20929;-69
2022/04/25 15:34:34;;;;;;;2.90;2.70;;;18.40;97.00;;;;;;5034311;28;21163;-71
2022/04/25 15:37:30;;;;;;;2.87;2.67;;;18.20;99.70;;;;;;5034771;28;20478;-69